sensor_id;sensor_type;location;lat;lon;timestamp;pressure;altitude;pressure_sealevel;temperature;humidity
967;BME280;56108;48.730;9.304;2024-03-02T00:00:23;96235.38;;;4.41;100.00
967;BME280;56108;48.730;9.304;2024-03-02T00:02:32;96236.34;;;4.40;100.00
967;BME280;56108;48.730;9.304;2024-03-02T00:04:40;96241.06;;;4.35;100.00
967;BME280;56108;48.730;9.304;2024-03-02T00:06:53;96243.59;;;4.37;100.00
967;BME280;56108;48.730;9.304;2024-03-02T00:09:02;96237.81;;;4.44;100.00
967;BME280;56108;48.730;9.304;2024-03-02T00:11:11;96246.56;;;4.58;100.00
967;BME280;56108;48.730;9.304;2024-03-02T00:13:23;96251.63;;;4.48;100.00
967;BME280;56108;48.730;9.304;2024-03-02T00:15:41;96263.41;;;4.42;100.00
967;BME280;56108;48.730;9.304;2024-03-02T00:17:52;96261.59;;;4.43;100.00
967;BME280;56108;48.730;9.304;2024-03-02T00:20:02;96268.25;;;4.49;100.00
967;BME280;56108;48.730;9.304;2024-03-02T00:22:15;96275.84;;;4.53;100.00
967;BME280;56108;48.730;9.304;2024-03-02T00:24:34;96283.97;;;4.50;100.00
967;BME280;56108;48.730;9.304;2024-03-02T00:26:44;96289.38;;;4.61;100.00
967;BME280;56108;48.730;9.304;2024-03-02T00:28:54;96298.38;;;4.71;100.00
967;BME280;56108;48.730;9.304;2024-03-02T00:31:04;96306.03;;;4.75;100.00
967;BME280;56108;48.730;9.304;2024-03-02T00:33:13;96308.38;;;4.79;100.00
967;BME280;56108;48.730;9.304;2024-03-02T00:35:20;96325.03;;;4.80;100.00
967;BME280;56108;48.730;9.304;2024-03-02T00:37:32;96327.78;;;4.78;100.00
967;BME280;56108;48.730;9.304;2024-03-02T00:39:42;96337.66;;;4.75;100.00
967;BME280;56108;48.730;9.304;2024-03-02T00:41:50;96348.00;;;4.65;100.00
967;BME280;56108;48.730;9.304;2024-03-02T00:44:00;96343.94;;;4.59;100.00
967;BME280;56108;48.730;9.304;2024-03-02T00:46:09;96333.31;;;4.61;100.00
967;BME280;56108;48.730;9.304;2024-03-02T00:48:16;96335.53;;;4.54;100.00
967;BME280;56108;48.730;9.304;2024-03-02T00:50:24;96324.78;;;4.57;100.00
967;BME280;56108;48.730;9.304;2024-03-02T00:52:37;96319.38;;;4.59;100.00
967;BME280;56108;48.730;9.304;2024-03-02T00:54:45;96325.31;;;4.62;100.00
967;BME280;56108;48.730;9.304;2024-03-02T00:56:54;96327.09;;;4.62;100.00
967;BME280;56108;48.730;9.304;2024-03-02T00:59:02;96321.66;;;4.65;100.00
967;BME280;56108;48.730;9.304;2024-03-02T01:01:08;96316.88;;;4.57;100.00
967;BME280;56108;48.730;9.304;2024-03-02T01:03:16;96313.19;;;4.60;100.00
967;BME280;56108;48.730;9.304;2024-03-02T01:05:22;96314.75;;;4.50;100.00
967;BME280;56108;48.730;9.304;2024-03-02T01:07:30;96312.81;;;4.39;100.00
967;BME280;56108;48.730;9.304;2024-03-02T01:09:40;96308.84;;;4.46;100.00
967;BME280;56108;48.730;9.304;2024-03-02T01:11:50;96301.22;;;4.41;100.00
967;BME280;56108;48.730;9.304;2024-03-02T01:13:58;96301.66;;;4.48;100.00
967;BME280;56108;48.730;9.304;2024-03-02T01:16:06;96302.19;;;4.40;100.00
967;BME280;56108;48.730;9.304;2024-03-02T01:18:14;96306.78;;;4.37;100.00
967;BME280;56108;48.730;9.304;2024-03-02T01:20:20;96302.38;;;4.37;100.00
967;BME280;56108;48.730;9.304;2024-03-02T01:22:27;96302.47;;;4.36;100.00
967;BME280;56108;48.730;9.304;2024-03-02T01:24:36;96296.56;;;4.32;100.00
967;BME280;56108;48.730;9.304;2024-03-02T01:26:47;96298.16;;;4.35;100.00
967;BME280;56108;48.730;9.304;2024-03-02T01:28:55;96292.69;;;4.38;100.00
967;BME280;56108;48.730;9.304;2024-03-02T01:31:03;96295.13;;;4.41;100.00
967;BME280;56108;48.730;9.304;2024-03-02T01:33:11;96297.75;;;4.41;100.00
967;BME280;56108;48.730;9.304;2024-03-02T01:35:19;96292.19;;;4.45;100.00
967;BME280;56108;48.730;9.304;2024-03-02T01:37:28;96295.13;;;4.41;100.00
967;BME280;56108;48.730;9.304;2024-03-02T01:39:33;96291.50;;;4.29;100.00
967;BME280;56108;48.730;9.304;2024-03-02T01:41:42;96295.94;;;4.29;100.00
967;BME280;56108;48.730;9.304;2024-03-02T01:43:52;96292.66;;;4.25;100.00
967;BME280;56108;48.730;9.304;2024-03-02T01:46:00;96290.13;;;4.24;100.00
967;BME280;56108;48.730;9.304;2024-03-02T01:48:09;96284.31;;;4.18;100.00
967;BME280;56108;48.730;9.304;2024-03-02T01:50:24;96283.34;;;4.19;100.00
967;BME280;56108;48.730;9.304;2024-03-02T01:52:30;96281.88;;;4.15;100.00
967;BME280;56108;48.730;9.304;2024-03-02T01:54:38;96281.88;;;4.15;100.00
967;BME280;56108;48.730;9.304;2024-03-02T01:56:46;96282.16;;;4.11;100.00
967;BME280;56108;48.730;9.304;2024-03-02T01:58:57;96285.34;;;4.16;100.00
967;BME280;56108;48.730;9.304;2024-03-02T02:01:05;96277.19;;;4.06;100.00
967;BME280;56108;48.730;9.304;2024-03-02T02:03:15;96276.63;;;4.01;100.00
967;BME280;56108;48.730;9.304;2024-03-02T02:05:23;96272.84;;;3.92;100.00
967;BME280;56108;48.730;9.304;2024-03-02T02:07:31;96269.97;;;3.96;100.00
967;BME280;56108;48.730;9.304;2024-03-02T02:09:36;96270.28;;;3.91;100.00
967;BME280;56108;48.730;9.304;2024-03-02T02:11:44;96273.97;;;3.88;100.00
967;BME280;56108;48.730;9.304;2024-03-02T02:13:53;96270.75;;;3.98;100.00
967;BME280;56108;48.730;9.304;2024-03-02T02:16:08;96275.22;;;4.10;100.00
967;BME280;56108;48.730;9.304;2024-03-02T02:18:17;96283.91;;;3.98;100.00
967;BME280;56108;48.730;9.304;2024-03-02T02:20:22;96270.09;;;3.94;100.00
967;BME280;56108;48.730;9.304;2024-03-02T02:22:33;96272.16;;;3.89;100.00
967;BME280;56108;48.730;9.304;2024-03-02T02:24:42;96264.56;;;3.84;100.00
967;BME280;56108;48.730;9.304;2024-03-02T02:26:50;96259.69;;;3.78;100.00
967;BME280;56108;48.730;9.304;2024-03-02T02:28:58;96260.72;;;3.76;100.00
967;BME280;56108;48.730;9.304;2024-03-02T02:31:06;96254.72;;;3.74;100.00
967;BME280;56108;48.730;9.304;2024-03-02T02:33:14;96248.72;;;3.72;100.00
967;BME280;56108;48.730;9.304;2024-03-02T02:35:22;96242.22;;;3.77;100.00
967;BME280;56108;48.730;9.304;2024-03-02T02:37:34;96236.88;;;3.79;100.00
967;BME280;56108;48.730;9.304;2024-03-02T02:39:42;96241.56;;;3.74;100.00
967;BME280;56108;48.730;9.304;2024-03-02T02:41:51;96246.00;;;3.73;100.00
967;BME280;56108;48.730;9.304;2024-03-02T02:43:59;96236.75;;;3.80;100.00
967;BME280;56108;48.730;9.304;2024-03-02T02:46:07;96232.16;;;3.84;100.00
967;BME280;56108;48.730;9.304;2024-03-02T02:48:15;96232.88;;;3.86;100.00
967;BME280;56108;48.730;9.304;2024-03-02T02:50:24;96229.88;;;3.92;100.00
967;BME280;56108;48.730;9.304;2024-03-02T02:52:35;96226.22;;;3.80;100.00
967;BME280;56108;48.730;9.304;2024-03-02T02:54:45;96223.31;;;3.85;100.00
967;BME280;56108;48.730;9.304;2024-03-02T02:56:53;96228.28;;;3.89;100.00
967;BME280;56108;48.730;9.304;2024-03-02T02:59:01;96224.06;;;3.87;100.00
967;BME280;56108;48.730;9.304;2024-03-02T03:01:09;96224.81;;;3.89;100.00
967;BME280;56108;48.730;9.304;2024-03-02T03:03:18;96225.38;;;3.80;100.00
967;BME280;56108;48.730;9.304;2024-03-02T03:05:26;96223.41;;;3.83;100.00
967;BME280;56108;48.730;9.304;2024-03-02T03:07:37;96217.75;;;3.89;100.00
967;BME280;56108;48.730;9.304;2024-03-02T03:09:45;96223.53;;;3.82;100.00
967;BME280;56108;48.730;9.304;2024-03-02T03:11:53;96227.28;;;3.78;100.00
967;BME280;56108;48.730;9.304;2024-03-02T03:14:01;96219.94;;;3.83;100.00
967;BME280;56108;48.730;9.304;2024-03-02T03:16:09;96224.28;;;3.97;100.00
967;BME280;56108;48.730;9.304;2024-03-02T03:18:18;96224.41;;;3.95;100.00
967;BME280;56108;48.730;9.304;2024-03-02T03:20:27;96220.34;;;4.04;100.00
967;BME280;56108;48.730;9.304;2024-03-02T03:22:38;96231.81;;;4.03;100.00
967;BME280;56108;48.730;9.304;2024-03-02T03:24:46;96222.97;;;4.04;100.00
967;BME280;56108;48.730;9.304;2024-03-02T03:26:54;96228.47;;;4.13;100.00
967;BME280;56108;48.730;9.304;2024-03-02T03:28:59;96228.38;;;4.15;100.00
967;BME280;56108;48.730;9.304;2024-03-02T03:31:08;96227.53;;;4.14;100.00
967;BME280;56108;48.730;9.304;2024-03-02T03:33:16;96229.81;;;4.06;100.00
967;BME280;56108;48.730;9.304;2024-03-02T03:35:24;96223.94;;;4.15;100.00
967;BME280;56108;48.730;9.304;2024-03-02T03:37:32;96235.31;;;4.16;100.00
967;BME280;56108;48.730;9.304;2024-03-02T03:39:43;96245.81;;;4.03;100.00
967;BME280;56108;48.730;9.304;2024-03-02T03:41:51;96235.47;;;4.00;100.00
967;BME280;56108;48.730;9.304;2024-03-02T03:43:56;96234.09;;;3.95;100.00
967;BME280;56108;48.730;9.304;2024-03-02T03:46:04;96228.09;;;3.92;100.00
967;BME280;56108;48.730;9.304;2024-03-02T03:48:12;96238.63;;;3.92;100.00
967;BME280;56108;48.730;9.304;2024-03-02T03:50:21;96236.16;;;3.89;100.00
967;BME280;56108;48.730;9.304;2024-03-02T03:52:29;96225.94;;;3.85;100.00
967;BME280;56108;48.730;9.304;2024-03-02T03:54:34;96229.13;;;3.90;100.00
967;BME280;56108;48.730;9.304;2024-03-02T03:56:46;96221.19;;;3.77;100.00
967;BME280;56108;48.730;9.304;2024-03-02T03:58:54;96223.25;;;3.72;100.00
967;BME280;56108;48.730;9.304;2024-03-02T04:01:02;96223.56;;;3.67;100.00
967;BME280;56108;48.730;9.304;2024-03-02T04:03:10;96212.63;;;3.74;100.00
967;BME280;56108;48.730;9.304;2024-03-02T04:05:18;96216.69;;;3.65;100.00
967;BME280;56108;48.730;9.304;2024-03-02T04:07:27;96210.69;;;3.63;100.00
967;BME280;56108;48.730;9.304;2024-03-02T04:09:35;96218.97;;;3.57;100.00
967;BME280;56108;48.730;9.304;2024-03-02T04:11:46;96214.38;;;3.60;100.00
967;BME280;56108;48.730;9.304;2024-03-02T04:13:54;96206.56;;;3.59;100.00
967;BME280;56108;48.730;9.304;2024-03-02T04:16:03;96205.53;;;3.61;100.00
967;BME280;56108;48.730;9.304;2024-03-02T04:18:09;96205.53;;;3.61;100.00
967;BME280;56108;48.730;9.304;2024-03-02T04:20:18;96206.84;;;3.54;100.00
967;BME280;56108;48.730;9.304;2024-03-02T04:22:26;96206.63;;;3.45;100.00
967;BME280;56108;48.730;9.304;2024-03-02T04:24:31;96198.88;;;3.56;100.00
967;BME280;56108;48.730;9.304;2024-03-02T04:26:39;96203.38;;;3.54;100.00
967;BME280;56108;48.730;9.304;2024-03-02T04:28:50;96206.50;;;3.46;100.00
967;BME280;56108;48.730;9.304;2024-03-02T04:30:59;96202.56;;;3.39;100.00
967;BME280;56108;48.730;9.304;2024-03-02T04:33:07;96199.59;;;3.31;100.00
967;BME280;56108;48.730;9.304;2024-03-02T04:35:15;96203.06;;;3.31;100.00
967;BME280;56108;48.730;9.304;2024-03-02T04:37:23;96197.91;;;3.30;100.00
967;BME280;56108;48.730;9.304;2024-03-02T04:39:31;96193.13;;;3.22;100.00
967;BME280;56108;48.730;9.304;2024-03-02T04:41:36;96191.25;;;3.24;100.00
967;BME280;56108;48.730;9.304;2024-03-02T04:43:45;96194.16;;;3.20;100.00
967;BME280;56108;48.730;9.304;2024-03-02T04:45:55;96192.28;;;3.22;100.00
967;BME280;56108;48.730;9.304;2024-03-02T04:48:04;96190.94;;;3.29;100.00
967;BME280;56108;48.730;9.304;2024-03-02T04:50:12;96192.66;;;3.30;100.00
967;BME280;56108;48.730;9.304;2024-03-02T04:52:18;96187.69;;;3.25;100.00
967;BME280;56108;48.730;9.304;2024-03-02T04:54:26;96191.72;;;3.17;100.00
967;BME280;56108;48.730;9.304;2024-03-02T04:56:35;96185.41;;;3.33;100.00
967;BME280;56108;48.730;9.304;2024-03-02T04:58:55;96189.75;;;3.34;100.00
967;BME280;56108;48.730;9.304;2024-03-02T05:01:03;96185.78;;;3.27;100.00
967;BME280;56108;48.730;9.304;2024-03-02T05:03:11;96188.69;;;3.23;100.00
967;BME280;56108;48.730;9.304;2024-03-02T05:05:19;96186.06;;;3.23;100.00
967;BME280;56108;48.730;9.304;2024-03-02T05:07:27;96182.16;;;3.16;100.00
967;BME280;56108;48.730;9.304;2024-03-02T05:09:35;96178.78;;;3.13;100.00
967;BME280;56108;48.730;9.304;2024-03-02T05:11:44;96173.72;;;3.10;100.00
967;BME280;56108;48.730;9.304;2024-03-02T05:14:07;96184.59;;;3.19;100.00
967;BME280;56108;48.730;9.304;2024-03-02T05:16:17;96183.09;;;3.14;100.00
967;BME280;56108;48.730;9.304;2024-03-02T05:18:25;96185.50;;;3.18;100.00
967;BME280;56108;48.730;9.304;2024-03-02T05:20:33;96192.38;;;3.06;100.00
967;BME280;56108;48.730;9.304;2024-03-02T05:22:39;96182.72;;;3.06;100.00
967;BME280;56108;48.730;9.304;2024-03-02T05:24:47;96183.94;;;3.01;100.00
967;BME280;56108;48.730;9.304;2024-03-02T05:26:55;96185.84;;;2.99;100.00
967;BME280;56108;48.730;9.304;2024-03-02T05:29:03;96179.19;;;2.93;100.00
967;BME280;56108;48.730;9.304;2024-03-02T05:31:11;96182.44;;;3.11;100.00
967;BME280;56108;48.730;9.304;2024-03-02T05:33:22;96182.53;;;3.09;100.00
967;BME280;56108;48.730;9.304;2024-03-02T05:35:30;96178.22;;;3.08;100.00
967;BME280;56108;48.730;9.304;2024-03-02T05:37:38;96185.34;;;2.92;100.00
967;BME280;56108;48.730;9.304;2024-03-02T05:39:46;96182.72;;;3.06;100.00
967;BME280;56108;48.730;9.304;2024-03-02T05:41:55;96191.53;;;2.91;100.00
967;BME280;56108;48.730;9.304;2024-03-02T05:44:00;96188.09;;;2.91;100.00
967;BME280;56108;48.730;9.304;2024-03-02T05:46:08;96187.25;;;2.90;100.00
967;BME280;56108;48.730;9.304;2024-03-02T05:50:27;96187.06;;;2.93;100.00
967;BME280;56108;48.730;9.304;2024-03-02T05:52:35;96188.09;;;2.91;100.00
967;BME280;56108;48.730;9.304;2024-03-02T05:54:44;96192.94;;;2.97;100.00
967;BME280;56108;48.730;9.304;2024-03-02T05:56:51;96191.00;;;3.00;100.00
967;BME280;56108;48.730;9.304;2024-03-02T05:59:00;96191.53;;;2.91;100.00
967;BME280;56108;48.730;9.304;2024-03-02T06:01:17;96189.97;;;2.88;100.00
967;BME280;56108;48.730;9.304;2024-03-02T06:03:27;96189.88;;;2.90;100.00
967;BME280;56108;48.730;9.304;2024-03-02T06:05:38;96194.09;;;2.93;100.00
967;BME280;56108;48.730;9.304;2024-03-02T06:07:46;96191.47;;;2.93;100.00
967;BME280;56108;48.730;9.304;2024-03-02T06:09:54;96189.31;;;2.99;100.00
967;BME280;56108;48.730;9.304;2024-03-02T06:12:04;96191.09;;;2.99;100.00
967;BME280;56108;48.730;9.304;2024-03-02T06:14:12;96190.59;;;2.92;100.00
967;BME280;56108;48.730;9.304;2024-03-02T06:16:18;96195.69;;;2.95;100.00
967;BME280;56108;48.730;9.304;2024-03-02T06:18:26;96189.97;;;3.03;100.00
967;BME280;56108;48.730;9.304;2024-03-02T06:20:32;96197.19;;;2.99;100.00
967;BME280;56108;48.730;9.304;2024-03-02T06:22:46;96196.06;;;3.03;100.00
967;BME280;56108;48.730;9.304;2024-03-02T06:24:54;96197.94;;;3.01;100.00
967;BME280;56108;48.730;9.304;2024-03-02T06:27:03;96203.47;;;3.11;100.00
967;BME280;56108;48.730;9.304;2024-03-02T06:29:11;96201.50;;;3.00;100.00
967;BME280;56108;48.730;9.304;2024-03-02T06:31:19;96201.50;;;3.00;100.00
967;BME280;56108;48.730;9.304;2024-03-02T06:33:28;96194.19;;;3.05;100.00
967;BME280;56108;48.730;9.304;2024-03-02T06:35:36;96194.84;;;3.09;100.00
967;BME280;56108;48.730;9.304;2024-03-02T06:37:47;96190.13;;;3.14;100.00
967;BME280;56108;48.730;9.304;2024-03-02T06:39:56;96193.31;;;3.19;100.00
967;BME280;56108;48.730;9.304;2024-03-02T06:42:04;96193.97;;;3.23;100.00
967;BME280;56108;48.730;9.304;2024-03-02T06:44:12;96196.59;;;3.23;100.00
967;BME280;56108;48.730;9.304;2024-03-02T06:46:20;96197.34;;;3.25;100.00
967;BME280;56108;48.730;9.304;2024-03-02T06:48:28;96205.69;;;3.17;100.00
967;BME280;56108;48.730;9.304;2024-03-02T06:50:36;96208.59;;;3.27;100.00
967;BME280;56108;48.730;9.304;2024-03-02T06:52:47;96202.97;;;3.33;100.00
967;BME280;56108;48.730;9.304;2024-03-02T06:54:55;96216.03;;;3.34;100.00
967;BME280;56108;48.730;9.304;2024-03-02T06:57:03;96218.91;;;3.44;100.00
967;BME280;56108;48.730;9.304;2024-03-02T06:59:11;96224.56;;;3.65;100.00
967;BME280;56108;48.730;9.304;2024-03-02T07:01:19;96223.34;;;3.71;100.00
967;BME280;56108;48.730;9.304;2024-03-02T07:03:30;96229.47;;;3.71;100.00
967;BME280;56108;48.730;9.304;2024-03-02T07:05:38;96231.88;;;3.74;100.00
967;BME280;56108;48.730;9.304;2024-03-02T07:07:49;96241.94;;;3.82;100.00
967;BME280;56108;48.730;9.304;2024-03-02T07:09:57;96245.13;;;3.87;100.00
967;BME280;56108;48.730;9.304;2024-03-02T07:12:06;96249.41;;;4.02;100.00
967;BME280;56108;48.730;9.304;2024-03-02T07:14:14;96245.53;;;4.21;100.00
967;BME280;56108;48.730;9.304;2024-03-02T07:16:22;96265.19;;;4.29;100.00
967;BME280;56108;48.730;9.304;2024-03-02T07:18:33;96273.84;;;4.44;100.00
967;BME280;56108;48.730;9.304;2024-03-02T07:20:38;96290.81;;;4.53;100.00
967;BME280;56108;48.730;9.304;2024-03-02T07:22:49;96309.97;;;4.82;100.00
967;BME280;56108;48.730;9.304;2024-03-02T07:24:57;96329.09;;;4.98;100.00
967;BME280;56108;48.730;9.304;2024-03-02T07:27:05;96347.66;;;4.96;100.00
967;BME280;56108;48.730;9.304;2024-03-02T07:29:13;96370.84;;;4.91;100.00
967;BME280;56108;48.730;9.304;2024-03-02T07:31:21;96383.00;;;5.07;100.00
967;BME280;56108;48.730;9.304;2024-03-02T07:35:40;96404.78;;;5.61;100.00
967;BME280;56108;48.730;9.304;2024-03-02T07:37:51;96418.50;;;5.79;100.00
967;BME280;56108;48.730;9.304;2024-03-02T07:40:00;96429.72;;;6.08;100.00
967;BME280;56108;48.730;9.304;2024-03-02T07:42:09;96433.72;;;6.26;100.00
967;BME280;56108;48.730;9.304;2024-03-02T07:44:14;96454.22;;;6.23;100.00
967;BME280;56108;48.730;9.304;2024-03-02T07:46:24;96452.53;;;6.22;100.00
967;BME280;56108;48.730;9.304;2024-03-02T07:48:32;96455.00;;;6.49;100.00
967;BME280;56108;48.730;9.304;2024-03-02T07:50:41;96452.56;;;6.46;100.00
967;BME280;56108;48.730;9.304;2024-03-02T07:52:52;96462.66;;;6.28;100.00
967;BME280;56108;48.730;9.304;2024-03-02T07:55:00;96454.31;;;6.21;100.00
967;BME280;56108;48.730;9.304;2024-03-02T07:57:09;96455.25;;;6.33;100.00
967;BME280;56108;48.730;9.304;2024-03-02T07:59:17;96457.03;;;6.33;100.00
967;BME280;56108;48.730;9.304;2024-03-02T08:01:27;96460.59;;;6.44;100.00
967;BME280;56108;48.730;9.304;2024-03-02T08:03:36;96456.28;;;6.31;100.00
967;BME280;56108;48.730;9.304;2024-03-02T08:05:45;96462.00;;;6.37;100.00
967;BME280;56108;48.730;9.304;2024-03-02T08:07:56;96460.50;;;6.46;100.00
967;BME280;56108;48.730;9.304;2024-03-02T08:10:08;96457.97;;;6.44;100.00
967;BME280;56108;48.730;9.304;2024-03-02T08:12:16;96456.09;;;6.34;100.00
967;BME280;56108;48.730;9.304;2024-03-02T08:14:26;96455.63;;;6.52;100.00
967;BME280;56108;48.730;9.304;2024-03-02T08:16:34;96457.13;;;6.44;100.00
967;BME280;56108;48.730;9.304;2024-03-02T08:18:44;96447.34;;;5.95;100.00
967;BME280;56108;48.730;9.304;2024-03-02T08:20:52;96446.47;;;5.82;100.00
967;BME280;56108;48.730;9.304;2024-03-02T08:23:03;96433.63;;;6.03;100.00
967;BME280;56108;48.730;9.304;2024-03-02T08:25:13;96426.22;;;5.82;100.00
967;BME280;56108;48.730;9.304;2024-03-02T08:27:21;96427.25;;;5.67;100.00
967;BME280;56108;48.730;9.304;2024-03-02T08:29:32;96425.56;;;5.53;100.00
967;BME280;56108;48.730;9.304;2024-03-02T08:31:40;96422.50;;;5.72;100.00
967;BME280;56108;48.730;9.304;2024-03-02T08:33:48;96417.75;;;5.77;100.00
967;BME280;56108;48.730;9.304;2024-03-02T08:35:57;96417.31;;;5.58;100.00
967;BME280;56108;48.730;9.304;2024-03-02T08:38:07;96415.22;;;5.50;100.00
967;BME280;56108;48.730;9.304;2024-03-02T08:40:16;96405.31;;;5.54;100.00
967;BME280;56108;48.730;9.304;2024-03-02T08:42:24;96408.28;;;5.74;100.00
967;BME280;56108;48.730;9.304;2024-03-02T08:44:33;96417.44;;;5.82;100.00
967;BME280;56108;48.730;9.304;2024-03-02T08:46:41;96429.91;;;6.18;100.00
967;BME280;56108;48.730;9.304;2024-03-02T08:48:49;96433.91;;;6.23;100.00
967;BME280;56108;48.730;9.304;2024-03-02T08:50:58;96440.00;;;6.37;100.00
967;BME280;56108;48.730;9.304;2024-03-02T08:53:08;96445.53;;;6.34;100.00
967;BME280;56108;48.730;9.304;2024-03-02T08:55:16;96440.31;;;6.45;100.00
967;BME280;56108;48.730;9.304;2024-03-02T08:57:24;96432.31;;;6.70;100.00
967;BME280;56108;48.730;9.304;2024-03-02T08:59:33;96443.00;;;6.93;100.00
967;BME280;56108;48.730;9.304;2024-03-02T09:01:41;96452.84;;;7.15;100.00
967;BME280;56108;48.730;9.304;2024-03-02T09:03:50;96443.91;;;6.80;100.00
967;BME280;56108;48.730;9.304;2024-03-02T09:05:59;96443.72;;;7.19;100.00
967;BME280;56108;48.730;9.304;2024-03-02T09:08:10;96450.75;;;7.31;100.00
967;BME280;56108;48.730;9.304;2024-03-02T09:10:18;96448.50;;;7.38;100.00
967;BME280;56108;48.730;9.304;2024-03-02T09:12:30;96448.03;;;7.44;100.00
967;BME280;56108;48.730;9.304;2024-03-02T09:14:38;96445.47;;;7.31;100.00
967;BME280;56108;48.730;9.304;2024-03-02T09:16:46;96444.44;;;7.56;100.00
967;BME280;56108;48.730;9.304;2024-03-02T09:18:54;96449.34;;;7.84;100.00
967;BME280;56108;48.730;9.304;2024-03-02T09:21:00;96454.69;;;7.61;100.00
967;BME280;56108;48.730;9.304;2024-03-02T09:23:12;96456.78;;;7.79;100.00
967;BME280;56108;48.730;9.304;2024-03-02T09:25:20;96454.16;;;7.91;100.00
967;BME280;56108;48.730;9.304;2024-03-02T09:27:29;96444.06;;;8.18;100.00
967;BME280;56108;48.730;9.304;2024-03-02T09:29:34;96448.66;;;8.05;100.00
967;BME280;56108;48.730;9.304;2024-03-02T09:31:43;96439.13;;;8.14;100.00
967;BME280;56108;48.730;9.304;2024-03-02T09:33:51;96448.31;;;8.43;100.00
967;BME280;56108;48.730;9.304;2024-03-02T09:35:59;96447.38;;;8.99;100.00
967;BME280;56108;48.730;9.304;2024-03-02T09:38:07;96456.44;;;9.28;100.00
967;BME280;56108;48.730;9.304;2024-03-02T09:40:21;96447.34;;;9.10;100.00
967;BME280;56108;48.730;9.304;2024-03-02T09:42:30;96446.97;;;9.14;100.00
967;BME280;56108;48.730;9.304;2024-03-02T09:44:38;96440.03;;;9.23;100.00
967;BME280;56108;48.730;9.304;2024-03-02T09:46:48;96435.22;;;9.49;100.00
967;BME280;56108;48.730;9.304;2024-03-02T09:48:56;96444.38;;;9.77;100.00
967;BME280;56108;48.730;9.304;2024-03-02T09:51:05;96443.50;;;10.49;100.00
967;BME280;56108;48.730;9.304;2024-03-02T09:53:14;96449.00;;;10.97;93.21
967;BME280;56108;48.730;9.304;2024-03-02T09:55:26;96463.31;;;11.74;86.23
967;BME280;56108;48.730;9.304;2024-03-02T09:57:34;96474.44;;;12.83;77.18
967;BME280;56108;48.730;9.304;2024-03-02T09:59:45;96517.25;;;14.17;64.13
967;BME280;56108;48.730;9.304;2024-03-02T10:01:58;96524.44;;;14.86;61.40
967;BME280;56108;48.730;9.304;2024-03-02T10:04:05;96525.16;;;14.45;61.67
967;BME280;56108;48.730;9.304;2024-03-02T10:06:21;96506.97;;;14.74;61.79
967;BME280;56108;48.730;9.304;2024-03-02T10:08:42;96508.34;;;14.78;62.41
967;BME280;56108;48.730;9.304;2024-03-02T10:10:56;96538.31;;;17.05;55.68
967;BME280;56108;48.730;9.304;2024-03-02T10:13:05;96530.78;;;15.62;56.63
967;BME280;56108;48.730;9.304;2024-03-02T10:15:11;96548.81;;;16.67;53.98
967;BME280;56108;48.730;9.304;2024-03-02T10:17:19;96520.72;;;15.56;56.84
967;BME280;56108;48.730;9.304;2024-03-02T10:19:25;96521.97;;;14.93;57.85
967;BME280;56108;48.730;9.304;2024-03-02T10:21:40;96510.78;;;15.40;58.50
967;BME280;56108;48.730;9.304;2024-03-02T10:23:48;96523.44;;;16.70;55.13
967;BME280;56108;48.730;9.304;2024-03-02T10:25:59;96519.28;;;16.02;55.85
967;BME280;56108;48.730;9.304;2024-03-02T10:28:07;96528.81;;;16.78;53.67
967;BME280;56108;48.730;9.304;2024-03-02T10:30:15;96544.03;;;17.89;50.60
967;BME280;56108;48.730;9.304;2024-03-02T10:32:23;96534.84;;;15.74;53.23
967;BME280;56108;48.730;9.304;2024-03-02T10:34:32;96542.66;;;17.14;51.71
967;BME280;56108;48.730;9.304;2024-03-02T10:36:41;96539.56;;;16.62;52.28
967;BME280;56108;48.730;9.304;2024-03-02T10:38:51;96536.34;;;16.99;51.09
967;BME280;56108;48.730;9.304;2024-03-02T10:41:04;96543.09;;;16.62;50.92
967;BME280;56108;48.730;9.304;2024-03-02T10:43:13;96534.53;;;16.83;49.97
967;BME280;56108;48.730;9.304;2024-03-02T10:45:21;96553.75;;;17.90;48.07
967;BME280;56108;48.730;9.304;2024-03-02T10:47:29;96540.09;;;16.65;50.12
967;BME280;56108;48.730;9.304;2024-03-02T10:49:41;96523.72;;;17.47;50.12
967;BME280;56108;48.730;9.304;2024-03-02T10:51:50;96532.66;;;17.39;48.85
967;BME280;56108;48.730;9.304;2024-03-02T10:53:59;96534.84;;;17.44;47.84
967;BME280;56108;48.730;9.304;2024-03-02T10:56:14;96530.25;;;17.13;47.98
967;BME280;56108;48.730;9.304;2024-03-02T10:58:27;96522.56;;;17.41;49.57
967;BME280;56108;48.730;9.304;2024-03-02T11:00:41;96535.22;;;17.64;47.41
967;BME280;56108;48.730;9.304;2024-03-02T11:02:57;96523.25;;;18.20;47.09
967;BME280;56108;48.730;9.304;2024-03-02T11:05:08;96527.56;;;17.13;47.35
967;BME280;56108;48.730;9.304;2024-03-02T11:07:18;96504.84;;;16.28;50.10
967;BME280;56108;48.730;9.304;2024-03-02T11:09:28;96488.31;;;15.41;53.02
967;BME280;56108;48.730;9.304;2024-03-02T11:11:42;96465.03;;;14.31;55.49
967;BME280;56108;48.730;9.304;2024-03-02T11:13:52;96447.09;;;13.26;60.54
967;BME280;56108;48.730;9.304;2024-03-02T11:16:05;96429.19;;;12.53;63.19
967;BME280;56108;48.730;9.304;2024-03-02T11:18:15;96417.56;;;12.45;66.33
967;BME280;56108;48.730;9.304;2024-03-02T11:20:24;96413.75;;;12.47;64.56
967;BME280;56108;48.730;9.304;2024-03-02T11:22:34;96405.00;;;12.83;67.78
967;BME280;56108;48.730;9.304;2024-03-02T11:24:50;96405.78;;;12.75;66.49
967;BME280;56108;48.730;9.304;2024-03-02T11:27:05;96401.09;;;12.22;65.56
967;BME280;56108;48.730;9.304;2024-03-02T11:29:47;96397.91;;;12.46;65.93
967;BME280;56108;48.730;9.304;2024-03-02T11:31:59;96399.69;;;12.55;65.75
967;BME280;56108;48.730;9.304;2024-03-02T11:34:17;96390.44;;;12.22;65.52
967;BME280;56108;48.730;9.304;2024-03-02T11:36:26;96374.13;;;12.25;69.10
967;BME280;56108;48.730;9.304;2024-03-02T11:38:35;96373.50;;;12.41;68.65
967;BME280;56108;48.730;9.304;2024-03-02T11:40:44;96371.56;;;12.61;68.60
967;BME280;56108;48.730;9.304;2024-03-02T11:42:50;96385.47;;;12.64;66.55
967;BME280;56108;48.730;9.304;2024-03-02T11:45:01;96379.91;;;12.75;66.44
967;BME280;56108;48.730;9.304;2024-03-02T11:47:11;96380.25;;;12.90;65.66